sensor_id;sensor_type;location;lat;lon;timestamp;P1;durP1;ratioP1;P2;durP2;ratioP2
40737;SDS011;54759;48.094;-1.628;2023-08-08T00:00:36;0.40;;;0.15;;
40737;SDS011;54759;48.094;-1.628;2023-08-08T00:03:37;0.38;;;0.20;;
40737;SDS011;54759;48.094;-1.628;2023-08-08T00:06:39;0.38;;;0.28;;
40737;SDS011;54759;48.094;-1.628;2023-08-08T00:09:42;0.40;;;0.22;;
40737;SDS011;54759;48.094;-1.628;2023-08-08T00:12:45;0.77;;;0.20;;
40737;SDS011;54759;48.094;-1.628;2023-08-08T00:15:49;0.30;;;0.20;;
40737;SDS011;54759;48.094;-1.628;2023-08-08T00:18:53;0.30;;;0.20;;
40737;SDS011;54759;48.094;-1.628;2023-08-08T00:21:55;0.90;;;0.22;;
40737;SDS011;54759;48.094;-1.628;2023-08-08T00:24:58;0.40;;;0.13;;
40737;SDS011;54759;48.094;-1.628;2023-08-08T00:27:59;0.20;;;0.20;;
40737;SDS011;54759;48.094;-1.628;2023-08-08T00:31:02;0.20;;;0.20;;
40737;SDS011;54759;48.094;-1.628;2023-08-08T00:34:03;0.22;;;0.20;;
40737;SDS011;54759;48.094;-1.628;2023-08-08T00:37:05;0.40;;;0.20;;
40737;SDS011;54759;48.094;-1.628;2023-08-08T00:40:08;0.20;;;0.20;;
40737;SDS011;54759;48.094;-1.628;2023-08-08T00:43:12;0.60;;;0.30;;
40737;SDS011;54759;48.094;-1.628;2023-08-08T00:46:14;0.10;;;0.10;;
40737;SDS011;54759;48.094;-1.628;2023-08-08T00:49:16;0.20;;;0.20;;
40737;SDS011;54759;48.094;-1.628;2023-08-08T00:52:20;0.28;;;0.10;;
40737;SDS011;54759;48.094;-1.628;2023-08-08T00:55:23;0.20;;;0.20;;
40737;SDS011;54759;48.094;-1.628;2023-08-08T00:58:25;0.20;;;0.20;;
40737;SDS011;54759;48.094;-1.628;2023-08-08T01:01:30;0.90;;;0.30;;
40737;SDS011;54759;48.094;-1.628;2023-08-08T01:04:32;0.13;;;0.10;;
40737;SDS011;54759;48.094;-1.628;2023-08-08T01:07:36;0.20;;;0.20;;
40737;SDS011;54759;48.094;-1.628;2023-08-08T01:10:46;0.50;;;0.28;;
40737;SDS011;54759;48.094;-1.628;2023-08-08T01:13:51;0.85;;;0.20;;
40737;SDS011;54759;48.094;-1.628;2023-08-08T01:16:55;0.28;;;0.20;;
40737;SDS011;54759;48.094;-1.628;2023-08-08T01:20:00;0.20;;;0.10;;
40737;SDS011;54759;48.094;-1.628;2023-08-08T01:23:08;1.10;;;0.30;;
40737;SDS011;54759;48.094;-1.628;2023-08-08T01:26:14;0.40;;;0.20;;
40737;SDS011;54759;48.094;-1.628;2023-08-08T01:29:15;0.40;;;0.20;;
40737;SDS011;54759;48.094;-1.628;2023-08-08T01:32:18;0.40;;;0.20;;
40737;SDS011;54759;48.094;-1.628;2023-08-08T01:35:20;0.30;;;0.20;;
40737;SDS011;54759;48.094;-1.628;2023-08-08T01:41:04;0.32;;;0.25;;
40737;SDS011;54759;48.094;-1.628;2023-08-08T01:44:07;0.20;;;0.10;;
40737;SDS011;54759;48.094;-1.628;2023-08-08T01:47:09;0.10;;;0.10;;
40737;SDS011;54759;48.094;-1.628;2023-08-08T01:50:11;0.10;;;0.10;;
40737;SDS011;54759;48.094;-1.628;2023-08-08T01:53:13;0.10;;;0.10;;
40737;SDS011;54759;48.094;-1.628;2023-08-08T01:56:15;0.10;;;0.10;;
40737;SDS011;54759;48.094;-1.628;2023-08-08T01:59:17;0.20;;;0.20;;
40737;SDS011;54759;48.094;-1.628;2023-08-08T02:02:19;0.20;;;0.20;;
40737;SDS011;54759;48.094;-1.628;2023-08-08T02:05:21;0.40;;;0.20;;
40737;SDS011;54759;48.094;-1.628;2023-08-08T02:08:23;0.20;;;0.13;;
40737;SDS011;54759;48.094;-1.628;2023-08-08T02:11:28;0.45;;;0.20;;
40737;SDS011;54759;48.094;-1.628;2023-08-08T02:14:30;0.17;;;0.15;;
40737;SDS011;54759;48.094;-1.628;2023-08-08T02:17:32;0.10;;;0.10;;
40737;SDS011;54759;48.094;-1.628;2023-08-08T02:20:34;0.20;;;0.15;;
40737;SDS011;54759;48.094;-1.628;2023-08-08T02:23:36;0.30;;;0.20;;
40737;SDS011;54759;48.094;-1.628;2023-08-08T02:26:40;0.38;;;0.10;;
40737;SDS011;54759;48.094;-1.628;2023-08-08T02:29:42;0.20;;;0.20;;
40737;SDS011;54759;48.094;-1.628;2023-08-08T02:32:44;0.20;;;0.20;;
40737;SDS011;54759;48.094;-1.628;2023-08-08T02:35:46;0.30;;;0.20;;
40737;SDS011;54759;48.094;-1.628;2023-08-08T02:38:48;0.20;;;0.10;;
40737;SDS011;54759;48.094;-1.628;2023-08-08T02:41:54;0.10;;;0.10;;
40737;SDS011;54759;48.094;-1.628;2023-08-08T02:44:59;0.10;;;0.10;;
40737;SDS011;54759;48.094;-1.628;2023-08-08T02:48:01;0.10;;;0.10;;
40737;SDS011;54759;48.094;-1.628;2023-08-08T02:51:06;0.32;;;0.20;;
40737;SDS011;54759;48.094;-1.628;2023-08-08T02:54:08;0.10;;;0.10;;
40737;SDS011;54759;48.094;-1.628;2023-08-08T02:57:12;0.10;;;0.10;;
40737;SDS011;54759;48.094;-1.628;2023-08-08T03:00:15;0.20;;;0.20;;
40737;SDS011;54759;48.094;-1.628;2023-08-08T03:03:22;0.88;;;0.40;;
40737;SDS011;54759;48.094;-1.628;2023-08-08T03:06:24;0.43;;;0.13;;
40737;SDS011;54759;48.094;-1.628;2023-08-08T03:09:28;0.30;;;0.15;;
40737;SDS011;54759;48.094;-1.628;2023-08-08T03:12:30;0.20;;;0.20;;
40737;SDS011;54759;48.094;-1.628;2023-08-08T03:15:32;0.20;;;0.20;;
40737;SDS011;54759;48.094;-1.628;2023-08-08T03:18:40;0.55;;;0.30;;
40737;SDS011;54759;48.094;-1.628;2023-08-08T03:21:41;0.40;;;0.20;;
40737;SDS011;54759;48.094;-1.628;2023-08-08T03:24:44;0.52;;;0.20;;
40737;SDS011;54759;48.094;-1.628;2023-08-08T03:27:46;0.30;;;0.30;;
40737;SDS011;54759;48.094;-1.628;2023-08-08T03:30:49;0.30;;;0.30;;
40737;SDS011;54759;48.094;-1.628;2023-08-08T03:33:51;0.40;;;0.20;;
40737;SDS011;54759;48.094;-1.628;2023-08-08T03:36:53;0.10;;;0.10;;
40737;SDS011;54759;48.094;-1.628;2023-08-08T03:39:56;0.30;;;0.17;;
40737;SDS011;54759;48.094;-1.628;2023-08-08T03:42:58;0.30;;;0.20;;
40737;SDS011;54759;48.094;-1.628;2023-08-08T03:46:04;0.20;;;0.20;;
40737;SDS011;54759;48.094;-1.628;2023-08-08T03:49:12;0.15;;;0.10;;
40737;SDS011;54759;48.094;-1.628;2023-08-08T03:52:15;0.63;;;0.30;;
40737;SDS011;54759;48.094;-1.628;2023-08-08T03:55:17;0.28;;;0.20;;
40737;SDS011;54759;48.094;-1.628;2023-08-08T03:58:20;0.52;;;0.30;;
40737;SDS011;54759;48.094;-1.628;2023-08-08T04:01:30;0.10;;;0.10;;
40737;SDS011;54759;48.094;-1.628;2023-08-08T04:04:32;0.30;;;0.30;;
40737;SDS011;54759;48.094;-1.628;2023-08-08T04:07:34;0.30;;;0.20;;
40737;SDS011;54759;48.094;-1.628;2023-08-08T04:10:39;0.32;;;0.10;;
40737;SDS011;54759;48.094;-1.628;2023-08-08T04:13:41;0.40;;;0.20;;
40737;SDS011;54759;48.094;-1.628;2023-08-08T04:16:43;0.30;;;0.30;;
40737;SDS011;54759;48.094;-1.628;2023-08-08T04:19:45;0.10;;;0.10;;
40737;SDS011;54759;48.094;-1.628;2023-08-08T04:22:47;0.65;;;0.28;;
40737;SDS011;54759;48.094;-1.628;2023-08-08T04:25:50;0.13;;;0.13;;
40737;SDS011;54759;48.094;-1.628;2023-08-08T04:28:52;0.20;;;0.20;;
40737;SDS011;54759;48.094;-1.628;2023-08-08T04:31:56;0.10;;;0.10;;
40737;SDS011;54759;48.094;-1.628;2023-08-08T04:34:58;0.20;;;0.20;;
40737;SDS011;54759;48.094;-1.628;2023-08-08T04:38:00;0.17;;;0.10;;
40737;SDS011;54759;48.094;-1.628;2023-08-08T04:41:02;0.45;;;0.30;;
40737;SDS011;54759;48.094;-1.628;2023-08-08T04:44:04;0.10;;;0.10;;
40737;SDS011;54759;48.094;-1.628;2023-08-08T04:47:06;0.20;;;0.20;;
40737;SDS011;54759;48.094;-1.628;2023-08-08T04:50:08;0.10;;;0.10;;
40737;SDS011;54759;48.094;-1.628;2023-08-08T04:53:10;0.20;;;0.20;;
40737;SDS011;54759;48.094;-1.628;2023-08-08T04:56:12;0.50;;;0.30;;
40737;SDS011;54759;48.094;-1.628;2023-08-08T04:59:15;0.20;;;0.20;;
40737;SDS011;54759;48.094;-1.628;2023-08-08T05:02:16;0.57;;;0.30;;
40737;SDS011;54759;48.094;-1.628;2023-08-08T05:05:18;0.20;;;0.20;;
40737;SDS011;54759;48.094;-1.628;2023-08-08T05:08:20;0.20;;;0.20;;
40737;SDS011;54759;48.094;-1.628;2023-08-08T05:11:21;0.43;;;0.20;;
40737;SDS011;54759;48.094;-1.628;2023-08-08T05:14:24;0.25;;;0.20;;
40737;SDS011;54759;48.094;-1.628;2023-08-08T05:17:25;0.10;;;0.10;;
40737;SDS011;54759;48.094;-1.628;2023-08-08T05:20:27;0.20;;;0.20;;
40737;SDS011;54759;48.094;-1.628;2023-08-08T05:23:29;0.17;;;0.08;;
40737;SDS011;54759;48.094;-1.628;2023-08-08T05:26:31;0.22;;;0.17;;
40737;SDS011;54759;48.094;-1.628;2023-08-08T05:29:37;0.40;;;0.20;;
40737;SDS011;54759;48.094;-1.628;2023-08-08T05:32:39;0.10;;;0.10;;
40737;SDS011;54759;48.094;-1.628;2023-08-08T05:35:41;0.43;;;0.32;;
40737;SDS011;54759;48.094;-1.628;2023-08-08T05:38:45;0.52;;;0.20;;
40737;SDS011;54759;48.094;-1.628;2023-08-08T05:41:47;0.30;;;0.20;;
40737;SDS011;54759;48.094;-1.628;2023-08-08T05:44:50;0.40;;;0.20;;
40737;SDS011;54759;48.094;-1.628;2023-08-08T05:47:51;0.20;;;0.20;;
40737;SDS011;54759;48.094;-1.628;2023-08-08T05:50:53;0.50;;;0.15;;
40737;SDS011;54759;48.094;-1.628;2023-08-08T05:53:59;0.98;;;0.17;;
40737;SDS011;54759;48.094;-1.628;2023-08-08T05:57:04;1.30;;;0.20;;
40737;SDS011;54759;48.094;-1.628;2023-08-08T06:00:07;0.40;;;0.20;;
40737;SDS011;54759;48.094;-1.628;2023-08-08T06:03:15;0.55;;;0.20;;
40737;SDS011;54759;48.094;-1.628;2023-08-08T06:06:17;0.30;;;0.20;;
40737;SDS011;54759;48.094;-1.628;2023-08-08T06:09:19;0.85;;;0.20;;
40737;SDS011;54759;48.094;-1.628;2023-08-08T06:12:21;0.68;;;0.30;;
40737;SDS011;54759;48.094;-1.628;2023-08-08T06:15:27;0.65;;;0.30;;
40737;SDS011;54759;48.094;-1.628;2023-08-08T06:18:28;2.22;;;0.55;;
40737;SDS011;54759;48.094;-1.628;2023-08-08T06:21:33;1.00;;;0.38;;
40737;SDS011;54759;48.094;-1.628;2023-08-08T06:24:35;0.55;;;0.30;;
40737;SDS011;54759;48.094;-1.628;2023-08-08T06:27:37;0.25;;;0.20;;
40737;SDS011;54759;48.094;-1.628;2023-08-08T06:30:39;1.17;;;0.40;;
40737;SDS011;54759;48.094;-1.628;2023-08-08T06:33:42;0.70;;;0.43;;
40737;SDS011;54759;48.094;-1.628;2023-08-08T06:36:46;0.68;;;0.30;;
40737;SDS011;54759;48.094;-1.628;2023-08-08T06:39:48;1.40;;;0.40;;
40737;SDS011;54759;48.094;-1.628;2023-08-08T06:42:53;1.08;;;0.60;;
40737;SDS011;54759;48.094;-1.628;2023-08-08T06:45:56;3.38;;;0.77;;
40737;SDS011;54759;48.094;-1.628;2023-08-08T06:48:58;1.65;;;0.88;;
40737;SDS011;54759;48.094;-1.628;2023-08-08T06:52:01;1.20;;;0.57;;
40737;SDS011;54759;48.094;-1.628;2023-08-08T06:55:04;0.57;;;0.32;;
40737;SDS011;54759;48.094;-1.628;2023-08-08T06:58:06;1.45;;;0.50;;
40737;SDS011;54759;48.094;-1.628;2023-08-08T07:01:08;0.80;;;0.40;;
40737;SDS011;54759;48.094;-1.628;2023-08-08T07:04:10;0.40;;;0.20;;
40737;SDS011;54759;48.094;-1.628;2023-08-08T07:07:13;1.25;;;0.40;;
40737;SDS011;54759;48.094;-1.628;2023-08-08T07:10:15;0.75;;;0.50;;
40737;SDS011;54759;48.094;-1.628;2023-08-08T07:13:17;0.52;;;0.20;;
40737;SDS011;54759;48.094;-1.628;2023-08-08T07:16:19;0.60;;;0.35;;
40737;SDS011;54759;48.094;-1.628;2023-08-08T07:19:21;0.85;;;0.50;;
40737;SDS011;54759;48.094;-1.628;2023-08-08T07:22:23;0.68;;;0.40;;
40737;SDS011;54759;48.094;-1.628;2023-08-08T07:25:25;5.97;;;0.85;;
40737;SDS011;54759;48.094;-1.628;2023-08-08T07:28:27;1.23;;;0.40;;
40737;SDS011;54759;48.094;-1.628;2023-08-08T07:31:30;1.05;;;0.63;;
40737;SDS011;54759;48.094;-1.628;2023-08-08T07:34:31;0.65;;;0.25;;
40737;SDS011;54759;48.094;-1.628;2023-08-08T07:37:33;1.15;;;0.32;;
40737;SDS011;54759;48.094;-1.628;2023-08-08T07:40:37;0.52;;;0.30;;
40737;SDS011;54759;48.094;-1.628;2023-08-08T07:43:41;3.13;;;0.73;;
40737;SDS011;54759;48.094;-1.628;2023-08-08T07:46:44;1.45;;;0.50;;
40737;SDS011;54759;48.094;-1.628;2023-08-08T07:49:45;1.40;;;0.63;;
40737;SDS011;54759;48.094;-1.628;2023-08-08T07:52:47;0.82;;;0.40;;
40737;SDS011;54759;48.094;-1.628;2023-08-08T07:55:49;3.00;;;0.60;;
40737;SDS011;54759;48.094;-1.628;2023-08-08T07:58:51;3.40;;;0.82;;
40737;SDS011;54759;48.094;-1.628;2023-08-08T08:01:56;2.63;;;0.60;;
40737;SDS011;54759;48.094;-1.628;2023-08-08T08:05:07;2.05;;;0.60;;
40737;SDS011;54759;48.094;-1.628;2023-08-08T08:08:09;2.10;;;0.70;;
40737;SDS011;54759;48.094;-1.628;2023-08-08T08:11:11;1.42;;;0.60;;
40737;SDS011;54759;48.094;-1.628;2023-08-08T08:14:15;2.75;;;0.50;;
40737;SDS011;54759;48.094;-1.628;2023-08-08T08:17:17;1.67;;;0.52;;
40737;SDS011;54759;48.094;-1.628;2023-08-08T08:20:22;0.57;;;0.50;;
40737;SDS011;54759;48.094;-1.628;2023-08-08T08:23:24;1.58;;;0.50;;
40737;SDS011;54759;48.094;-1.628;2023-08-08T08:26:27;0.77;;;0.40;;
40737;SDS011;54759;48.094;-1.628;2023-08-08T08:29:29;1.05;;;0.30;;
40737;SDS011;54759;48.094;-1.628;2023-08-08T08:32:33;1.70;;;0.40;;
40737;SDS011;54759;48.094;-1.628;2023-08-08T08:35:35;1.15;;;0.40;;
40737;SDS011;54759;48.094;-1.628;2023-08-08T08:38:38;1.75;;;0.35;;
40737;SDS011;54759;48.094;-1.628;2023-08-08T08:41:40;0.30;;;0.20;;
40737;SDS011;54759;48.094;-1.628;2023-08-08T08:44:43;1.25;;;0.40;;
40737;SDS011;54759;48.094;-1.628;2023-08-08T08:47:46;0.47;;;0.30;;
40737;SDS011;54759;48.094;-1.628;2023-08-08T08:50:48;0.98;;;0.40;;
40737;SDS011;54759;48.094;-1.628;2023-08-08T08:53:50;1.55;;;0.30;;
40737;SDS011;54759;48.094;-1.628;2023-08-08T08:56:52;1.27;;;0.32;;
40737;SDS011;54759;48.094;-1.628;2023-08-08T08:59:58;0.25;;;0.20;;
40737;SDS011;54759;48.094;-1.628;2023-08-08T09:03:00;0.57;;;0.20;;
40737;SDS011;54759;48.094;-1.628;2023-08-08T09:06:02;1.30;;;0.10;;
40737;SDS011;54759;48.094;-1.628;2023-08-08T09:09:09;0.10;;;0.10;;
40737;SDS011;54759;48.094;-1.628;2023-08-08T09:12:17;0.65;;;0.17;;
40737;SDS011;54759;48.094;-1.628;2023-08-08T09:15:20;1.20;;;0.30;;
40737;SDS011;54759;48.094;-1.628;2023-08-08T09:18:23;0.30;;;0.20;;
40737;SDS011;54759;48.094;-1.628;2023-08-08T09:21:25;0.25;;;0.20;;
40737;SDS011;54759;48.094;-1.628;2023-08-08T09:24:27;0.85;;;0.20;;
40737;SDS011;54759;48.094;-1.628;2023-08-08T09:27:29;1.05;;;0.30;;
40737;SDS011;54759;48.094;-1.628;2023-08-08T09:30:31;0.40;;;0.20;;
40737;SDS011;54759;48.094;-1.628;2023-08-08T09:33:35;0.80;;;0.30;;
40737;SDS011;54759;48.094;-1.628;2023-08-08T09:36:40;0.80;;;0.30;;
40737;SDS011;54759;48.094;-1.628;2023-08-08T09:39:44;0.28;;;0.20;;
40737;SDS011;54759;48.094;-1.628;2023-08-08T09:42:46;0.30;;;0.30;;
40737;SDS011;54759;48.094;-1.628;2023-08-08T09:45:51;0.30;;;0.22;;
40737;SDS011;54759;48.094;-1.628;2023-08-08T09:48:53;0.20;;;0.20;;
40737;SDS011;54759;48.094;-1.628;2023-08-08T09:51:56;0.32;;;0.22;;
40737;SDS011;54759;48.094;-1.628;2023-08-08T09:55:00;0.30;;;0.20;;
40737;SDS011;54759;48.094;-1.628;2023-08-08T09:58:02;0.40;;;0.20;;
40737;SDS011;54759;48.094;-1.628;2023-08-08T10:01:05;0.10;;;0.10;;
40737;SDS011;54759;48.094;-1.628;2023-08-08T10:04:08;0.40;;;0.30;;
40737;SDS011;54759;48.094;-1.628;2023-08-08T10:07:11;1.58;;;0.30;;
40737;SDS011;54759;48.094;-1.628;2023-08-08T10:10:15;0.32;;;0.30;;
40737;SDS011;54759;48.094;-1.628;2023-08-08T10:13:20;0.35;;;0.22;;
40737;SDS011;54759;48.094;-1.628;2023-08-08T10:16:22;0.77;;;0.20;;
40737;SDS011;54759;48.094;-1.628;2023-08-08T10:19:27;0.90;;;0.47;;
40737;SDS011;54759;48.094;-1.628;2023-08-08T10:22:29;0.32;;;0.20;;
40737;SDS011;54759;48.094;-1.628;2023-08-08T10:25:31;0.20;;;0.20;;
40737;SDS011;54759;48.094;-1.628;2023-08-08T10:28:33;0.88;;;0.30;;
40737;SDS011;54759;48.094;-1.628;2023-08-08T10:31:35;0.45;;;0.43;;
40737;SDS011;54759;48.094;-1.628;2023-08-08T10:34:39;0.73;;;0.30;;
40737;SDS011;54759;48.094;-1.628;2023-08-08T10:37:51;0.38;;;0.30;;
40737;SDS011;54759;48.094;-1.628;2023-08-08T10:40:55;0.80;;;0.30;;
40737;SDS011;54759;48.094;-1.628;2023-08-08T10:43:59;0.40;;;0.40;;
40737;SDS011;54759;48.094;-1.628;2023-08-08T10:47:03;0.88;;;0.30;;
40737;SDS011;54759;48.094;-1.628;2023-08-08T10:50:06;1.00;;;0.32;;
40737;SDS011;54759;48.094;-1.628;2023-08-08T10:53:10;1.45;;;0.40;;
40737;SDS011;54759;48.094;-1.628;2023-08-08T10:56:13;0.68;;;0.52;;
40737;SDS011;54759;48.094;-1.628;2023-08-08T10:59:16;1.38;;;0.50;;
40737;SDS011;54759;48.094;-1.628;2023-08-08T11:02:19;0.30;;;0.20;;
40737;SDS011;54759;48.094;-1.628;2023-08-08T11:05:22;1.65;;;0.40;;
40737;SDS011;54759;48.094;-1.628;2023-08-08T11:08:27;1.13;;;0.40;;
40737;SDS011;54759;48.094;-1.628;2023-08-08T11:11:35;0.32;;;0.22;;
40737;SDS011;54759;48.094;-1.628;2023-08-08T11:14:38;0.77;;;0.40;;
40737;SDS011;54759;48.094;-1.628;2023-08-08T11:17:40;0.40;;;0.30;;
40737;SDS011;54759;48.094;-1.628;2023-08-08T11:20:46;1.23;;;0.60;;
40737;SDS011;54759;48.094;-1.628;2023-08-08T11:23:50;1.33;;;0.55;;
40737;SDS011;54759;48.094;-1.628;2023-08-08T11:26:57;1.00;;;0.40;;
40737;SDS011;54759;48.094;-1.628;2023-08-08T11:29:59;1.50;;;0.28;;
40737;SDS011;54759;48.094;-1.628;2023-08-08T11:33:02;0.55;;;0.40;;
40737;SDS011;54759;48.094;-1.628;2023-08-08T11:36:09;1.52;;;0.50;;
40737;SDS011;54759;48.094;-1.628;2023-08-08T11:39:14;2.72;;;0.65;;
40737;SDS011;54759;48.094;-1.628;2023-08-08T11:42:17;0.90;;;0.40;;
40737;SDS011;54759;48.094;-1.628;2023-08-08T11:45:19;0.73;;;0.32;;
40737;SDS011;54759;48.094;-1.628;2023-08-08T11:48:21;0.68;;;0.40;;
40737;SDS011;54759;48.094;-1.628;2023-08-08T11:51:23;1.17;;;0.50;;
40737;SDS011;54759;48.094;-1.628;2023-08-08T11:54:26;1.42;;;0.50;;
40737;SDS011;54759;48.094;-1.628;2023-08-08T11:57:28;0.98;;;0.88;;
40737;SDS011;54759;48.094;-1.628;2023-08-08T12:00:30;0.70;;;0.40;;
40737;SDS011;54759;48.094;-1.628;2023-08-08T12:03:32;0.95;;;0.40;;
40737;SDS011;54759;48.094;-1.628;2023-08-08T12:06:39;1.35;;;0.40;;
40737;SDS011;54759;48.094;-1.628;2023-08-08T12:09:43;0.73;;;0.40;;
40737;SDS011;54759;48.094;-1.628;2023-08-08T12:12:45;2.78;;;0.65;;
40737;SDS011;54759;48.094;-1.628;2023-08-08T12:15:47;1.27;;;0.40;;
40737;SDS011;54759;48.094;-1.628;2023-08-08T12:18:51;1.38;;;0.50;;
40737;SDS011;54759;48.094;-1.628;2023-08-08T12:21:53;0.20;;;0.20;;
40737;SDS011;54759;48.094;-1.628;2023-08-08T12:24:57;0.88;;;0.47;;
40737;SDS011;54759;48.094;-1.628;2023-08-08T12:28:01;1.45;;;0.70;;
40737;SDS011;54759;48.094;-1.628;2023-08-08T12:31:03;1.60;;;0.63;;
40737;SDS011;54759;48.094;-1.628;2023-08-08T12:34:05;2.40;;;0.80;;
